createdAt,value
2023-06-13T00:00:51.185Z,4.60
2023-06-13T00:03:21.235Z,4.75
2023-06-13T00:05:48.635Z,4.68
2023-06-13T00:08:19.975Z,4.78
2023-06-13T00:10:50.038Z,4.75
2023-06-13T00:13:19.801Z,4.65
2023-06-13T00:15:53.680Z,4.30
2023-06-13T00:18:21.177Z,4.57
2023-06-13T00:20:48.834Z,4.43
2023-06-13T00:23:16.361Z,4.25
2023-06-13T00:25:46.618Z,3.97
2023-06-13T00:28:13.938Z,4.63
2023-06-13T00:30:41.379Z,4.97
2023-06-13T00:33:08.957Z,4.88
2023-06-13T00:35:36.434Z,4.93
2023-06-13T00:38:08.127Z,4.68
2023-06-13T00:40:35.169Z,5.03
2023-06-13T00:43:02.031Z,4.97
2023-06-13T00:45:30.416Z,4.50
2023-06-13T00:48:04.177Z,4.55
2023-06-13T00:50:37.509Z,4.90
2023-06-13T00:53:09.884Z,5.03
2023-06-13T00:55:37.504Z,4.50
2023-06-13T00:58:08.073Z,4.68
2023-06-13T01:00:39.790Z,4.82
2023-06-13T01:03:10.185Z,4.40
2023-06-13T01:05:40.298Z,4.20
2023-06-13T01:08:19.685Z,4.93
2023-06-13T01:11:00.939Z,4.72
2023-06-13T01:13:40.123Z,5.03
2023-06-13T01:16:35.236Z,4.15
2023-06-13T01:19:10.006Z,4.32
2023-06-13T01:21:38.187Z,4.63
2023-06-13T01:24:15.712Z,4.53
2023-06-13T01:26:54.332Z,4.82
2023-06-13T01:29:22.090Z,4.88
2023-06-13T01:31:53.667Z,4.35
2023-06-13T01:34:21.653Z,4.53
2023-06-13T01:39:17.794Z,4.55
2023-06-13T01:41:45.215Z,5.07
2023-06-13T01:44:19.068Z,5.10
2023-06-13T01:47:00.451Z,4.68
2023-06-13T01:49:49.339Z,5.25
2023-06-13T01:52:39.135Z,4.65
2023-06-13T01:55:14.514Z,4.95
2023-06-13T01:57:45.050Z,4.82
2023-06-13T02:00:17.652Z,4.45
2023-06-13T02:02:50.173Z,4.65
2023-06-13T02:05:20.510Z,5.30
2023-06-13T02:07:49.166Z,5.15
2023-06-13T02:10:21.296Z,4.80
2023-06-13T02:12:50.852Z,4.80
2023-06-13T02:15:18.136Z,4.60
2023-06-13T02:17:49.187Z,5.00
2023-06-13T02:20:16.686Z,5.35
2023-06-13T02:22:44.387Z,5.30
2023-06-13T02:25:13.088Z,5.13
2023-06-13T02:27:40.841Z,4.70
2023-06-13T02:30:09.726Z,5.05
2023-06-13T02:32:41.280Z,5.43
2023-06-13T02:35:10.765Z,5.43
2023-06-13T02:37:40.854Z,5.43
2023-06-13T02:40:11.206Z,5.20
2023-06-13T02:42:38.514Z,5.38
2023-06-13T02:45:05.990Z,5.05
2023-06-13T02:47:33.294Z,5.78
2023-06-13T02:50:00.710Z,5.35
2023-06-13T02:52:28.281Z,5.93
2023-06-13T02:54:55.758Z,5.50
2023-06-13T02:57:22.959Z,5.97
2023-06-13T02:59:50.097Z,5.93
2023-06-13T03:02:17.510Z,5.65
2023-06-13T03:04:46.736Z,5.53
2023-06-13T03:07:19.372Z,5.13
2023-06-13T03:09:48.947Z,5.72
2023-06-13T03:14:49.567Z,5.68
2023-06-13T03:17:17.838Z,6.15
2023-06-13T03:19:45.425Z,6.03
2023-06-13T03:22:14.916Z,5.93
2023-06-13T03:24:43.439Z,6.25
2023-06-13T03:27:14.360Z,5.70
2023-06-13T03:29:44.400Z,5.53
2023-06-13T03:32:12.964Z,5.55
2023-06-13T03:34:44.353Z,5.90
2023-06-13T03:37:14.289Z,5.97
2023-06-13T03:39:42.401Z,5.65
2023-06-13T03:42:09.773Z,5.65
2023-06-13T03:44:36.959Z,5.20
2023-06-13T03:47:04.386Z,5.65
2023-06-13T03:49:32.121Z,6.40
2023-06-13T03:52:01.526Z,5.57
2023-06-13T03:54:28.691Z,5.78
2023-06-13T03:56:56.616Z,5.63
2023-06-13T03:59:25.845Z,5.60
2023-06-13T04:01:53.360Z,5.53
2023-06-13T04:04:22.040Z,5.20
2023-06-13T04:06:50.265Z,5.63
2023-06-13T04:09:19.400Z,5.85
2023-06-13T04:11:46.610Z,5.75
2023-06-13T04:14:13.781Z,5.75
2023-06-13T04:16:41.002Z,6.65
2023-06-13T04:19:08.404Z,6.13
2023-06-13T04:21:39.041Z,6.15
2023-06-13T04:24:08.984Z,6.13
2023-06-13T04:26:38.209Z,5.88
2023-06-13T04:29:05.498Z,5.53
2023-06-13T04:31:36.318Z,6.13
2023-06-13T04:34:08.739Z,6.28
2023-06-13T04:36:40.202Z,6.47
2023-06-13T04:39:07.924Z,6.43
2023-06-13T04:41:36.906Z,5.78
2023-06-13T04:44:04.647Z,5.78
2023-06-13T04:46:31.974Z,6.22
2023-06-13T04:48:59.292Z,6.45
2023-06-13T04:51:27.229Z,5.95
2023-06-13T04:53:58.219Z,6.82
2023-06-13T04:56:29.045Z,6.03
2023-06-13T04:58:57.188Z,6.07
2023-06-13T05:01:29.346Z,5.97
2023-06-13T05:03:58.494Z,6.10
2023-06-13T05:06:29.362Z,6.30
2023-06-13T05:08:58.980Z,6.10
2023-06-13T05:11:26.123Z,5.80
2023-06-13T05:13:52.993Z,5.95
2023-06-13T05:16:21.446Z,6.30
2023-06-13T05:18:50.589Z,6.18
2023-06-13T05:21:18.356Z,6.57
2023-06-13T05:23:45.821Z,6.68
2023-06-13T05:26:17.977Z,6.10
2023-06-13T05:28:44.991Z,6.13
2023-06-13T05:31:14.256Z,6.53
2023-06-13T05:33:43.088Z,5.95
2023-06-13T05:36:10.538Z,6.25
2023-06-13T05:38:37.898Z,6.22
2023-06-13T05:41:05.025Z,6.32
2023-06-13T05:43:32.337Z,6.75
2023-06-13T05:45:59.561Z,6.07
2023-06-13T05:48:27.388Z,6.55
2023-06-13T05:50:54.671Z,6.40
2023-06-13T05:53:21.917Z,5.40
2023-06-13T05:55:49.874Z,6.15
2023-06-13T05:58:17.144Z,6.43
2023-06-13T06:00:54.852Z,6.07
2023-06-13T06:03:22.559Z,5.97
2023-06-13T06:05:49.815Z,6.38
2023-06-13T06:08:16.624Z,6.18
2023-06-13T06:10:43.892Z,6.20
2023-06-13T06:13:10.784Z,5.85
2023-06-13T06:15:38.289Z,5.60
2023-06-13T06:18:05.609Z,6.28
2023-06-13T06:20:32.488Z,5.88
2023-06-13T06:22:59.755Z,6.38
2023-06-13T06:25:27.090Z,5.57
2023-06-13T06:27:54.672Z,5.97
2023-06-13T06:30:21.685Z,5.60
2023-06-13T06:35:17.740Z,6.13
2023-06-13T06:40:47.077Z,5.28
2023-06-13T06:43:13.897Z,5.38
2023-06-13T06:45:42.250Z,5.20
2023-06-13T06:51:51.082Z,5.18
2023-06-13T06:54:17.988Z,4.85
2023-06-13T06:56:44.858Z,4.80
2023-06-13T06:59:11.639Z,5.10
2023-06-13T07:01:41.733Z,4.85
2023-06-13T07:04:08.631Z,4.80
2023-06-13T07:06:35.813Z,5.07
2023-06-13T07:09:03.070Z,5.07
2023-06-13T07:11:30.196Z,4.70
2023-06-13T07:13:57.589Z,4.78
2023-06-13T07:16:24.817Z,4.85
2023-06-13T07:18:53.066Z,4.85
2023-06-13T07:21:20.050Z,4.88
2023-06-13T07:24:01.946Z,4.72
2023-06-13T07:26:37.064Z,4.63
2023-06-13T07:29:04.283Z,4.75
2023-06-13T07:31:31.465Z,5.10
2023-06-13T07:33:58.402Z,4.97
2023-06-13T07:36:34.926Z,4.53
2023-06-13T07:39:12.552Z,4.55
2023-06-13T07:41:39.512Z,5.10
2023-06-13T07:44:07.222Z,4.50
2023-06-13T07:46:39.623Z,5.32
2023-06-13T07:49:06.404Z,4.63
2023-06-13T07:51:34.191Z,4.43
2023-06-13T07:54:01.513Z,5.50
2023-06-13T07:56:28.560Z,4.93
2023-06-13T07:59:04.057Z,4.88
2023-06-13T08:01:55.893Z,4.70
2023-06-13T08:04:36.625Z,4.90
2023-06-13T08:07:11.713Z,4.63
2023-06-13T08:09:38.542Z,4.15
2023-06-13T08:12:31.023Z,4.40
2023-06-13T08:14:57.782Z,4.80
2023-06-13T08:17:26.006Z,4.95
2023-06-13T08:19:56.390Z,4.57
2023-06-13T08:22:23.637Z,5.10
2023-06-13T08:24:50.632Z,5.03
2023-06-13T08:27:17.908Z,4.82
2023-06-13T08:29:45.138Z,4.82
2023-06-13T08:32:33.953Z,4.70
2023-06-13T08:35:24.026Z,4.85
2023-06-13T08:37:51.400Z,4.60
2023-06-13T08:40:22.003Z,4.80
2023-06-13T08:42:49.361Z,4.78
2023-06-13T08:45:21.072Z,4.97
2023-06-13T08:54:50.389Z,4.85
2023-06-13T09:01:30.070Z,4.68
2023-06-13T09:08:33.294Z,4.50
2023-06-13T09:11:01.668Z,4.57
2023-06-13T09:13:56.464Z,4.78
2023-06-13T09:17:00.062Z,5.15
2023-06-13T09:19:27.499Z,4.80
2023-06-13T09:21:55.049Z,4.40
2023-06-13T09:24:37.157Z,4.80
2023-06-13T09:27:05.985Z,5.05
2023-06-13T09:29:39.912Z,4.68
2023-06-13T09:32:10.069Z,4.20
2023-06-13T09:34:39.438Z,4.30
2023-06-13T09:37:08.954Z,4.38
2023-06-13T09:43:30.308Z,4.70
2023-06-13T09:46:51.023Z,4.50
2023-06-13T09:49:19.329Z,5.10
2023-06-13T09:51:46.829Z,4.63
2023-06-13T09:54:17.276Z,4.90
2023-06-13T09:56:45.890Z,4.60
2023-06-13T09:59:19.239Z,4.93
2023-06-13T10:01:59.995Z,4.68
2023-06-13T10:04:54.023Z,4.72
2023-06-13T10:07:30.018Z,5.15
2023-06-13T10:09:57.357Z,5.40
2023-06-13T10:12:25.955Z,4.63
2023-06-13T10:15:13.795Z,4.22
2023-06-13T10:17:58.557Z,4.22
2023-06-13T10:20:29.257Z,5.00
2023-06-13T10:22:57.599Z,4.82
2023-06-13T10:25:29.278Z,4.28
2023-06-13T10:28:47.490Z,4.97
2023-06-13T10:36:06.270Z,4.60
2023-06-13T10:38:47.597Z,4.38
2023-06-13T10:41:52.255Z,4.72
2023-06-13T10:49:29.162Z,4.53
2023-06-13T10:51:56.910Z,4.88
2023-06-13T10:54:56.746Z,5.13
2023-06-13T10:57:51.504Z,4.80
2023-06-13T11:00:44.850Z,4.65
2023-06-13T11:03:35.618Z,4.88
2023-06-13T11:06:07.444Z,4.50
2023-06-13T11:08:34.713Z,5.25
2023-06-13T11:14:33.857Z,4.47
2023-06-13T11:17:03.707Z,5.00
2023-06-13T11:19:35.119Z,4.60
2023-06-13T11:22:07.602Z,5.07
2023-06-13T11:27:41.142Z,4.88
2023-06-13T11:30:09.723Z,4.93
2023-06-13T11:32:39.755Z,5.07
2023-06-13T11:35:09.883Z,4.75
2023-06-13T11:37:45.944Z,4.57
2023-06-13T11:40:24.607Z,5.25
2023-06-13T11:42:52.033Z,4.85
2023-06-13T11:45:23.348Z,4.85
2023-06-13T11:48:01.424Z,4.75
2023-06-13T11:50:37.689Z,4.78
2023-06-13T11:53:09.602Z,4.85
2023-06-13T11:55:37.111Z,5.05
2023-06-13T11:58:04.374Z,4.72
2023-06-13T12:00:55.189Z,4.95
2023-06-13T12:03:26.909Z,5.30
2023-06-13T12:05:57.773Z,4.85
2023-06-13T12:08:27.585Z,4.90
2023-06-13T12:10:55.536Z,4.93
2023-06-13T12:13:23.620Z,5.32
2023-06-13T12:15:50.750Z,4.80
2023-06-13T12:21:01.050Z,4.90
2023-06-13T12:23:29.008Z,5.25
2023-06-13T12:26:08.268Z,5.30
2023-06-13T12:28:36.964Z,4.65
2023-06-13T12:31:08.913Z,4.65
2023-06-13T12:33:43.168Z,4.95
2023-06-13T12:39:01.523Z,4.43
2023-06-13T12:41:50.354Z,4.93
2023-06-13T12:44:47.633Z,5.65
2023-06-13T12:47:16.347Z,4.60
2023-06-13T12:49:44.747Z,5.18
2023-06-13T12:52:40.483Z,5.00
2023-06-13T12:55:07.866Z,5.38
2023-06-13T12:57:47.279Z,4.30
2023-06-13T13:00:34.688Z,4.80
2023-06-13T13:03:17.681Z,5.30
2023-06-13T13:05:45.332Z,4.60
2023-06-13T13:08:35.895Z,4.45
2023-06-13T13:11:05.644Z,4.72
2023-06-13T13:16:14.935Z,5.18
2023-06-13T13:18:50.908Z,5.63
2023-06-13T13:28:34.987Z,4.72
2023-06-13T13:31:46.321Z,5.72
2023-06-13T13:34:22.665Z,4.95
2023-06-13T13:36:55.162Z,4.85
2023-06-13T13:43:11.534Z,5.28
2023-06-13T13:50:05.316Z,5.40
2023-06-13T13:52:41.597Z,5.15
2023-06-13T13:55:11.577Z,4.88
2023-06-13T13:57:51.049Z,5.13
2023-06-13T14:00:25.744Z,5.05
2023-06-13T14:02:54.294Z,4.97
2023-06-13T14:05:28.217Z,5.00
2023-06-13T14:07:55.724Z,5.38
2023-06-13T14:10:38.134Z,5.40
2023-06-13T14:13:08.067Z,5.35
2023-06-13T14:15:59.220Z,5.75
2023-06-13T14:18:35.688Z,5.75
2023-06-13T14:21:15.703Z,5.57
2023-06-13T14:24:08.085Z,5.30
2023-06-13T14:26:35.524Z,5.70
2023-06-13T14:29:07.049Z,5.47
2023-06-13T14:31:34.376Z,5.82
2023-06-13T14:34:10.456Z,5.85
2023-06-13T14:36:40.651Z,6.07
2023-06-13T14:39:11.324Z,5.60
2023-06-13T14:41:41.078Z,5.07
2023-06-13T14:44:10.814Z,5.25
2023-06-13T14:46:38.280Z,5.20
2023-06-13T14:49:06.203Z,5.05
2023-06-13T14:51:57.983Z,5.45
2023-06-13T14:54:37.921Z,5.65
2023-06-13T14:57:24.396Z,5.25
2023-06-13T14:59:51.775Z,5.45
2023-06-13T15:02:19.199Z,5.53
2023-06-13T15:04:46.563Z,5.53
2023-06-13T15:07:38.932Z,5.20
2023-06-13T15:10:06.260Z,5.40
2023-06-13T15:12:33.593Z,6.03
2023-06-13T15:15:01.000Z,5.43
2023-06-13T15:17:28.279Z,5.15
2023-06-13T15:19:55.790Z,5.05
2023-06-13T15:22:23.129Z,5.68
2023-06-13T15:24:52.409Z,5.25
2023-06-13T15:29:48.860Z,5.18
2023-06-13T15:32:21.599Z,5.40
2023-06-13T15:34:50.938Z,5.10
2023-06-13T15:39:48.888Z,5.18
2023-06-13T15:42:44.477Z,5.70
2023-06-13T15:45:16.391Z,4.78
2023-06-13T15:47:45.845Z,5.63
2023-06-13T15:50:16.104Z,4.72
2023-06-13T15:52:43.525Z,5.60
2023-06-13T15:55:10.367Z,5.60
2023-06-13T15:57:37.798Z,5.55
2023-06-13T16:00:09.398Z,5.20
2023-06-13T16:02:45.581Z,5.35
2023-06-13T16:05:15.083Z,4.78
2023-06-13T16:07:44.012Z,5.47
2023-06-13T16:10:11.722Z,5.35
2023-06-13T16:17:16.187Z,5.30
2023-06-13T16:30:10.940Z,5.55
2023-06-13T16:32:38.672Z,5.50
2023-06-13T16:35:10.573Z,5.68
2023-06-13T16:37:41.377Z,5.25
2023-06-13T16:40:08.808Z,5.90
2023-06-13T16:42:41.765Z,5.80
2023-06-13T16:45:11.056Z,5.22
2023-06-13T16:47:39.105Z,6.07
2023-06-13T16:50:58.142Z,6.90
2023-06-13T17:09:47.326Z,5.30
2023-06-13T17:12:46.120Z,5.35
2023-06-13T17:15:16.603Z,5.15
2023-06-13T17:17:46.255Z,5.70
2023-06-13T17:22:40.652Z,5.07
2023-06-13T17:25:13.712Z,5.25
2023-06-13T17:27:44.646Z,5.15
2023-06-13T17:30:12.338Z,5.10
2023-06-13T17:32:39.200Z,5.75
2023-06-13T17:35:06.801Z,5.10
2023-06-13T17:37:35.613Z,5.65
2023-06-13T17:40:03.367Z,5.95
2023-06-13T17:42:31.320Z,5.22
2023-06-13T17:44:58.997Z,5.80
2023-06-13T17:47:26.505Z,4.90
2023-06-13T17:49:53.966Z,4.82
2023-06-13T17:52:22.270Z,4.82
2023-06-13T17:54:49.439Z,4.82
2023-06-13T17:57:18.778Z,4.93
2023-06-13T17:59:46.595Z,4.95
2023-06-13T18:02:15.001Z,5.22
2023-06-13T18:04:42.347Z,4.75
2023-06-13T18:07:35.254Z,4.78
2023-06-13T18:10:02.925Z,5.20
2023-06-13T18:12:30.285Z,5.43
2023-06-13T18:14:58.218Z,5.25
2023-06-13T18:17:26.552Z,4.97
2023-06-13T18:19:54.012Z,5.20
2023-06-13T18:25:57.755Z,5.05
2023-06-13T18:28:41.394Z,5.22
2023-06-13T18:31:09.153Z,4.95
2023-06-13T18:37:36.753Z,5.00
2023-06-13T18:40:05.132Z,4.82
2023-06-13T18:42:36.991Z,5.07
2023-06-13T18:45:13.039Z,5.00
2023-06-13T18:53:52.639Z,4.13
2023-06-13T18:56:19.884Z,3.88
2023-06-13T18:58:47.774Z,3.92
2023-06-13T19:01:15.078Z,3.85
2023-06-13T19:03:42.676Z,4.03
2023-06-13T19:06:09.480Z,3.83
2023-06-13T19:08:37.034Z,3.60
2023-06-13T19:11:07.812Z,3.92
2023-06-13T19:13:46.298Z,3.80
2023-06-13T19:16:17.012Z,3.53
2023-06-13T19:18:44.575Z,3.47
2023-06-13T19:36:24.594Z,3.30
2023-06-13T19:38:53.401Z,3.50
2023-06-13T19:41:20.610Z,3.70
2023-06-13T19:43:50.676Z,3.40
2023-06-13T19:46:19.563Z,3.40
2023-06-13T19:48:46.917Z,3.33
2023-06-13T19:51:21.842Z,3.40
2023-06-13T19:53:49.106Z,3.15
2023-06-13T19:56:18.124Z,3.28
2023-06-13T19:58:45.515Z,3.15
2023-06-13T20:01:12.882Z,3.17
2023-06-13T20:03:48.268Z,3.42
2023-06-13T20:06:15.652Z,3.38
2023-06-13T20:08:44.742Z,3.30
2023-06-13T20:11:20.190Z,3.08
2023-06-13T20:14:09.103Z,3.40
2023-06-13T20:16:36.083Z,3.33
2023-06-13T20:19:06.611Z,3.17
2023-06-13T20:21:33.523Z,3.53
2023-06-13T20:24:03.826Z,3.00
2023-06-13T20:26:30.760Z,3.35
2023-06-13T20:28:58.138Z,3.47
2023-06-13T20:31:25.464Z,3.30
2023-06-13T20:33:52.997Z,4.15
2023-06-13T20:36:20.584Z,3.40
2023-06-13T20:38:54.204Z,3.42
2023-06-13T20:41:26.672Z,3.78
2023-06-13T20:43:55.794Z,3.60
2023-06-13T20:47:34.120Z,3.22
2023-06-13T20:50:15.755Z,3.25
2023-06-13T20:53:34.024Z,3.28
2023-06-13T21:00:36.807Z,3.50
2023-06-13T21:03:04.304Z,3.30
2023-06-13T21:05:34.361Z,3.10
2023-06-13T21:08:07.264Z,3.20
2023-06-13T21:10:37.090Z,3.53
2023-06-13T21:13:04.174Z,3.20
2023-06-13T21:15:31.416Z,3.20
2023-06-13T21:17:58.512Z,3.15
2023-06-13T21:20:30.620Z,3.08
2023-06-13T21:22:58.968Z,2.75
2023-06-13T21:25:27.874Z,3.25
2023-06-13T21:27:58.565Z,3.42
2023-06-13T21:30:25.873Z,3.17
2023-06-13T21:32:57.175Z,2.92
2023-06-13T21:35:25.443Z,3.08
2023-06-13T21:37:54.534Z,3.50
2023-06-13T21:40:24.118Z,3.13
2023-06-13T21:42:52.124Z,3.60
2023-06-13T21:45:31.120Z,3.13
2023-06-13T21:50:55.665Z,3.10
2023-06-13T21:53:50.056Z,3.03
2023-06-13T21:56:41.894Z,3.30
2023-06-13T21:59:09.332Z,3.20
2023-06-13T22:01:38.626Z,3.58
2023-06-13T22:04:05.621Z,3.28
2023-06-13T22:06:35.183Z,3.13
2023-06-13T22:09:03.488Z,3.22
2023-06-13T22:11:39.726Z,3.63
2023-06-13T22:14:07.347Z,3.33
2023-06-13T22:16:36.753Z,3.22
2023-06-13T22:19:06.419Z,3.03
2023-06-13T22:21:34.122Z,3.25
2023-06-13T22:24:07.324Z,3.30
2023-06-13T22:26:38.461Z,3.10
2023-06-13T22:29:07.740Z,3.35
2023-06-13T22:31:34.936Z,2.95
2023-06-13T22:34:01.789Z,2.88
2023-06-13T22:36:32.257Z,3.40
2023-06-13T22:38:59.613Z,3.55
2023-06-13T22:41:26.983Z,3.03
2023-06-13T22:43:54.345Z,3.25
2023-06-13T22:46:25.991Z,3.22
2023-06-13T22:48:54.681Z,3.58
2023-06-13T22:51:26.706Z,3.50
2023-06-13T22:53:54.395Z,3.70
2023-06-13T22:56:21.708Z,3.10
2023-06-13T22:58:48.981Z,2.97
2023-06-13T23:01:16.288Z,3.70
2023-06-13T23:03:43.916Z,3.20
2023-06-13T23:06:11.184Z,3.40
2023-06-13T23:08:38.930Z,3.30
2023-06-13T23:11:06.732Z,3.10
2023-06-13T23:13:34.207Z,3.17
2023-06-13T23:16:03.919Z,3.40
2023-06-13T23:18:33.517Z,3.30
2023-06-13T23:21:01.102Z,3.42
2023-06-13T23:23:28.290Z,3.78
2023-06-13T23:25:56.016Z,3.40
2023-06-13T23:28:26.513Z,3.30
2023-06-13T23:30:58.259Z,3.38
2023-06-13T23:33:26.182Z,3.30
2023-06-13T23:35:53.313Z,3.45
2023-06-13T23:38:21.223Z,3.60
2023-06-13T23:40:48.535Z,3.25
2023-06-13T23:43:16.071Z,3.55
2023-06-13T23:45:43.299Z,4.03
2023-06-13T23:48:11.024Z,3.65
2023-06-13T23:50:38.473Z,3.67
2023-06-13T23:53:15.836Z,3.70
2023-06-13T23:55:43.448Z,3.63
2023-06-13T23:58:12.524Z,3.78
